sensor_id;sensor_type;location;lat;lon;timestamp;P1;durP1;ratioP1;P2;durP2;ratioP2
5129;SDS011;2583;50.946;6.954;2022-11-15T00:01:08;7.67;;;7.07;;
5129;SDS011;2583;50.946;6.954;2022-11-15T00:03:35;7.43;;;6.73;;
5129;SDS011;2583;50.946;6.954;2022-11-15T00:06:03;7.90;;;7.27;;
5129;SDS011;2583;50.946;6.954;2022-11-15T00:08:31;8.93;;;8.03;;
5129;SDS011;2583;50.946;6.954;2022-11-15T00:10:59;8.30;;;7.50;;
5129;SDS011;2583;50.946;6.954;2022-11-15T00:13:27;7.50;;;6.90;;
5129;SDS011;2583;50.946;6.954;2022-11-15T00:15:59;8.00;;;7.30;;
5129;SDS011;2583;50.946;6.954;2022-11-15T00:18:26;8.13;;;6.87;;
5129;SDS011;2583;50.946;6.954;2022-11-15T00:20:54;8.90;;;6.77;;
5129;SDS011;2583;50.946;6.954;2022-11-15T00:23:21;12.30;;;8.00;;
5129;SDS011;2583;50.946;6.954;2022-11-15T00:25:54;9.77;;;8.67;;
5129;SDS011;2583;50.946;6.954;2022-11-15T00:28:22;10.87;;;8.07;;
5129;SDS011;2583;50.946;6.954;2022-11-15T00:30:49;11.00;;;7.73;;
5129;SDS011;2583;50.946;6.954;2022-11-15T00:33:16;6.93;;;6.47;;
5129;SDS011;2583;50.946;6.954;2022-11-15T00:35:43;8.83;;;7.80;;
5129;SDS011;2583;50.946;6.954;2022-11-15T00:38:09;7.63;;;7.17;;
5129;SDS011;2583;50.946;6.954;2022-11-15T00:40:36;8.00;;;7.40;;
5129;SDS011;2583;50.946;6.954;2022-11-15T00:43:03;8.90;;;8.17;;
5129;SDS011;2583;50.946;6.954;2022-11-15T00:45:30;8.30;;;7.60;;
5129;SDS011;2583;50.946;6.954;2022-11-15T00:47:56;8.33;;;7.73;;
5129;SDS011;2583;50.946;6.954;2022-11-15T00:50:23;8.17;;;7.37;;
5129;SDS011;2583;50.946;6.954;2022-11-15T00:52:50;7.97;;;6.87;;
5129;SDS011;2583;50.946;6.954;2022-11-15T00:55:17;8.33;;;7.30;;
5129;SDS011;2583;50.946;6.954;2022-11-15T00:57:45;8.20;;;7.43;;
5129;SDS011;2583;50.946;6.954;2022-11-15T01:00:12;8.13;;;7.40;;
5129;SDS011;2583;50.946;6.954;2022-11-15T01:02:39;9.80;;;7.17;;
5129;SDS011;2583;50.946;6.954;2022-11-15T01:05:06;8.93;;;7.90;;
5129;SDS011;2583;50.946;6.954;2022-11-15T01:07:34;9.20;;;8.37;;
5129;SDS011;2583;50.946;6.954;2022-11-15T01:10:01;8.87;;;8.00;;
5129;SDS011;2583;50.946;6.954;2022-11-15T01:12:27;9.13;;;7.43;;
5129;SDS011;2583;50.946;6.954;2022-11-15T01:14:54;10.23;;;7.70;;
5129;SDS011;2583;50.946;6.954;2022-11-15T01:17:21;8.63;;;7.93;;
5129;SDS011;2583;50.946;6.954;2022-11-15T01:19:48;8.47;;;7.37;;
5129;SDS011;2583;50.946;6.954;2022-11-15T01:22:15;9.70;;;9.00;;
5129;SDS011;2583;50.946;6.954;2022-11-15T01:24:42;8.73;;;8.00;;
5129;SDS011;2583;50.946;6.954;2022-11-15T01:27:09;8.43;;;7.63;;
5129;SDS011;2583;50.946;6.954;2022-11-15T01:29:35;10.17;;;7.20;;
5129;SDS011;2583;50.946;6.954;2022-11-15T01:32:02;9.13;;;7.73;;
5129;SDS011;2583;50.946;6.954;2022-11-15T01:34:29;8.13;;;7.40;;
5129;SDS011;2583;50.946;6.954;2022-11-15T01:36:56;7.90;;;7.20;;
5129;SDS011;2583;50.946;6.954;2022-11-15T01:39:23;8.70;;;7.87;;
5129;SDS011;2583;50.946;6.954;2022-11-15T01:41:50;9.90;;;8.10;;
5129;SDS011;2583;50.946;6.954;2022-11-15T01:47:18;15.63;;;9.70;;
5129;SDS011;2583;50.946;6.954;2022-11-15T01:49:55;8.27;;;7.50;;
5129;SDS011;2583;50.946;6.954;2022-11-15T01:52:27;9.50;;;8.60;;
5129;SDS011;2583;50.946;6.954;2022-11-15T01:57:35;10.27;;;8.47;;
5129;SDS011;2583;50.946;6.954;2022-11-15T02:00:03;9.33;;;8.47;;
5129;SDS011;2583;50.946;6.954;2022-11-15T02:02:32;12.53;;;8.43;;
5129;SDS011;2583;50.946;6.954;2022-11-15T02:05:00;10.70;;;8.67;;
5129;SDS011;2583;50.946;6.954;2022-11-15T02:07:27;11.53;;;7.90;;
5129;SDS011;2583;50.946;6.954;2022-11-15T02:09:56;8.70;;;7.83;;
5129;SDS011;2583;50.946;6.954;2022-11-15T02:12:28;10.77;;;8.03;;
5129;SDS011;2583;50.946;6.954;2022-11-15T02:14:57;7.93;;;7.13;;
5129;SDS011;2583;50.946;6.954;2022-11-15T02:25:40;8.47;;;7.27;;
5129;SDS011;2583;50.946;6.954;2022-11-15T02:28:35;8.60;;;7.93;;
5129;SDS011;2583;50.946;6.954;2022-11-15T02:31:10;10.40;;;8.23;;
5129;SDS011;2583;50.946;6.954;2022-11-15T02:39:35;9.47;;;7.00;;
5129;SDS011;2583;50.946;6.954;2022-11-15T02:42:09;7.83;;;7.23;;
5129;SDS011;2583;50.946;6.954;2022-11-15T02:45:00;8.67;;;7.10;;
5129;SDS011;2583;50.946;6.954;2022-11-15T02:47:33;8.40;;;7.67;;
5129;SDS011;2583;50.946;6.954;2022-11-15T02:50:06;8.40;;;7.70;;
5129;SDS011;2583;50.946;6.954;2022-11-15T02:52:35;13.17;;;7.87;;
5129;SDS011;2583;50.946;6.954;2022-11-15T02:55:02;7.93;;;7.33;;
5129;SDS011;2583;50.946;6.954;2022-11-15T02:57:42;7.80;;;7.23;;
5129;SDS011;2583;50.946;6.954;2022-11-15T03:00:18;10.73;;;7.40;;
5129;SDS011;2583;50.946;6.954;2022-11-15T03:19:30;8.83;;;6.30;;
5129;SDS011;2583;50.946;6.954;2022-11-15T03:22:03;7.10;;;6.50;;
5129;SDS011;2583;50.946;6.954;2022-11-15T03:24:33;7.97;;;7.23;;
5129;SDS011;2583;50.946;6.954;2022-11-15T03:27:02;6.03;;;5.60;;
5129;SDS011;2583;50.946;6.954;2022-11-15T03:29:32;6.70;;;6.30;;
5129;SDS011;2583;50.946;6.954;2022-11-15T03:32:23;6.50;;;6.00;;
5129;SDS011;2583;50.946;6.954;2022-11-15T03:37:22;6.07;;;5.63;;
5129;SDS011;2583;50.946;6.954;2022-11-15T03:39:55;7.60;;;6.33;;
5129;SDS011;2583;50.946;6.954;2022-11-15T03:42:26;7.77;;;6.87;;
5129;SDS011;2583;50.946;6.954;2022-11-15T03:45:16;7.00;;;6.40;;
5129;SDS011;2583;50.946;6.954;2022-11-15T03:50:50;7.03;;;6.53;;
5129;SDS011;2583;50.946;6.954;2022-11-15T03:53:18;7.23;;;6.60;;
5129;SDS011;2583;50.946;6.954;2022-11-15T03:55:45;7.30;;;6.80;;
5129;SDS011;2583;50.946;6.954;2022-11-15T03:58:11;7.83;;;7.00;;
5129;SDS011;2583;50.946;6.954;2022-11-15T04:00:38;7.17;;;6.47;;
5129;SDS011;2583;50.946;6.954;2022-11-15T04:03:05;6.10;;;5.70;;
5129;SDS011;2583;50.946;6.954;2022-11-15T04:05:33;9.87;;;6.70;;
5129;SDS011;2583;50.946;6.954;2022-11-15T04:08:00;11.10;;;7.30;;
5129;SDS011;2583;50.946;6.954;2022-11-15T04:10:27;6.70;;;6.20;;
5129;SDS011;2583;50.946;6.954;2022-11-15T04:12:53;6.70;;;6.30;;
5129;SDS011;2583;50.946;6.954;2022-11-15T04:15:21;7.00;;;6.43;;
5129;SDS011;2583;50.946;6.954;2022-11-15T04:17:50;6.83;;;6.43;;
5129;SDS011;2583;50.946;6.954;2022-11-15T04:20:25;7.00;;;6.60;;
5129;SDS011;2583;50.946;6.954;2022-11-15T04:23:15;7.27;;;6.77;;
5129;SDS011;2583;50.946;6.954;2022-11-15T04:26:03;7.20;;;6.70;;
5129;SDS011;2583;50.946;6.954;2022-11-15T04:28:31;7.90;;;6.70;;
5129;SDS011;2583;50.946;6.954;2022-11-15T04:30:58;8.93;;;8.03;;
5129;SDS011;2583;50.946;6.954;2022-11-15T04:33:25;7.67;;;7.07;;
5129;SDS011;2583;50.946;6.954;2022-11-15T04:35:52;7.23;;;6.57;;
5129;SDS011;2583;50.946;6.954;2022-11-15T04:38:37;7.83;;;7.13;;
5129;SDS011;2583;50.946;6.954;2022-11-15T04:41:04;7.53;;;6.93;;
5129;SDS011;2583;50.946;6.954;2022-11-15T04:43:31;6.87;;;6.27;;
5129;SDS011;2583;50.946;6.954;2022-11-15T04:45:58;6.90;;;6.40;;
5129;SDS011;2583;50.946;6.954;2022-11-15T04:48:25;6.80;;;6.40;;
5129;SDS011;2583;50.946;6.954;2022-11-15T04:50:51;6.80;;;6.13;;
5129;SDS011;2583;50.946;6.954;2022-11-15T04:53:18;7.17;;;6.60;;
5129;SDS011;2583;50.946;6.954;2022-11-15T04:55:45;7.30;;;6.90;;
5129;SDS011;2583;50.946;6.954;2022-11-15T04:58:12;6.70;;;6.20;;
5129;SDS011;2583;50.946;6.954;2022-11-15T05:00:39;7.33;;;6.40;;
5129;SDS011;2583;50.946;6.954;2022-11-15T05:03:08;6.60;;;6.10;;
5129;SDS011;2583;50.946;6.954;2022-11-15T05:05:54;6.67;;;6.27;;
5129;SDS011;2583;50.946;6.954;2022-11-15T05:08:21;6.30;;;5.80;;
5129;SDS011;2583;50.946;6.954;2022-11-15T05:10:48;6.40;;;5.90;;
5129;SDS011;2583;50.946;6.954;2022-11-15T05:13:15;6.30;;;5.90;;
5129;SDS011;2583;50.946;6.954;2022-11-15T05:15:42;6.43;;;5.93;;
5129;SDS011;2583;50.946;6.954;2022-11-15T05:18:09;6.43;;;5.93;;
5129;SDS011;2583;50.946;6.954;2022-11-15T05:20:37;6.70;;;6.30;;
5129;SDS011;2583;50.946;6.954;2022-11-15T05:23:04;6.50;;;5.90;;
5129;SDS011;2583;50.946;6.954;2022-11-15T05:25:31;6.63;;;6.13;;
5129;SDS011;2583;50.946;6.954;2022-11-15T05:27:57;6.73;;;6.33;;
5129;SDS011;2583;50.946;6.954;2022-11-15T05:30:24;5.80;;;5.40;;
5129;SDS011;2583;50.946;6.954;2022-11-15T05:33:01;5.80;;;5.50;;
5129;SDS011;2583;50.946;6.954;2022-11-15T05:35:40;9.67;;;6.30;;
5129;SDS011;2583;50.946;6.954;2022-11-15T05:38:11;5.77;;;5.37;;
5129;SDS011;2583;50.946;6.954;2022-11-15T05:40:38;6.00;;;5.70;;
5129;SDS011;2583;50.946;6.954;2022-11-15T05:43:05;7.60;;;6.30;;
5129;SDS011;2583;50.946;6.954;2022-11-15T05:45:32;6.23;;;5.67;;
5129;SDS011;2583;50.946;6.954;2022-11-15T05:48:01;6.00;;;5.60;;
5129;SDS011;2583;50.946;6.954;2022-11-15T05:50:34;6.20;;;5.67;;
5129;SDS011;2583;50.946;6.954;2022-11-15T05:53:04;6.30;;;5.90;;
5129;SDS011;2583;50.946;6.954;2022-11-15T05:55:32;6.20;;;5.60;;
5129;SDS011;2583;50.946;6.954;2022-11-15T05:57:59;5.90;;;5.60;;
5129;SDS011;2583;50.946;6.954;2022-11-15T06:00:26;6.93;;;6.20;;
5129;SDS011;2583;50.946;6.954;2022-11-15T06:02:54;6.33;;;5.83;;
5129;SDS011;2583;50.946;6.954;2022-11-15T06:05:21;7.83;;;5.30;;
5129;SDS011;2583;50.946;6.954;2022-11-15T06:07:48;5.40;;;5.10;;
5129;SDS011;2583;50.946;6.954;2022-11-15T06:10:15;5.57;;;5.17;;
5129;SDS011;2583;50.946;6.954;2022-11-15T06:12:42;6.47;;;6.07;;
5129;SDS011;2583;50.946;6.954;2022-11-15T06:15:09;5.77;;;5.30;;
5129;SDS011;2583;50.946;6.954;2022-11-15T06:17:36;6.47;;;5.93;;
5129;SDS011;2583;50.946;6.954;2022-11-15T06:20:03;5.20;;;4.90;;
5129;SDS011;2583;50.946;6.954;2022-11-15T06:22:30;5.23;;;4.90;;
5129;SDS011;2583;50.946;6.954;2022-11-15T06:24:56;4.80;;;4.50;;
5129;SDS011;2583;50.946;6.954;2022-11-15T06:27:30;4.97;;;4.47;;
5129;SDS011;2583;50.946;6.954;2022-11-15T06:29:58;5.17;;;4.87;;
5129;SDS011;2583;50.946;6.954;2022-11-15T06:32:25;5.00;;;4.70;;
5129;SDS011;2583;50.946;6.954;2022-11-15T06:34:52;4.80;;;4.50;;
5129;SDS011;2583;50.946;6.954;2022-11-15T06:37:19;5.23;;;4.50;;
5129;SDS011;2583;50.946;6.954;2022-11-15T06:39:46;4.03;;;3.83;;
5129;SDS011;2583;50.946;6.954;2022-11-15T06:42:12;4.60;;;4.20;;
5129;SDS011;2583;50.946;6.954;2022-11-15T06:44:39;4.03;;;3.47;;
5129;SDS011;2583;50.946;6.954;2022-11-15T06:47:06;3.37;;;3.17;;
5129;SDS011;2583;50.946;6.954;2022-11-15T06:49:32;4.07;;;3.77;;
5129;SDS011;2583;50.946;6.954;2022-11-15T06:51:59;4.57;;;4.17;;
5129;SDS011;2583;50.946;6.954;2022-11-15T06:54:26;9.10;;;4.37;;
5129;SDS011;2583;50.946;6.954;2022-11-15T06:56:53;6.90;;;4.80;;
5129;SDS011;2583;50.946;6.954;2022-11-15T06:59:19;4.87;;;3.70;;
5129;SDS011;2583;50.946;6.954;2022-11-15T07:01:46;5.03;;;3.47;;
5129;SDS011;2583;50.946;6.954;2022-11-15T07:04:13;5.23;;;4.10;;
5129;SDS011;2583;50.946;6.954;2022-11-15T07:06:40;5.10;;;4.30;;
5129;SDS011;2583;50.946;6.954;2022-11-15T07:09:06;3.53;;;3.30;;
5129;SDS011;2583;50.946;6.954;2022-11-15T07:11:33;4.30;;;3.90;;
5129;SDS011;2583;50.946;6.954;2022-11-15T07:14:00;11.50;;;3.87;;
5129;SDS011;2583;50.946;6.954;2022-11-15T07:16:27;8.80;;;4.30;;
5129;SDS011;2583;50.946;6.954;2022-11-15T07:18:54;8.73;;;4.07;;
5129;SDS011;2583;50.946;6.954;2022-11-15T07:21:21;6.03;;;4.70;;
5129;SDS011;2583;50.946;6.954;2022-11-15T07:23:52;5.07;;;3.60;;
5129;SDS011;2583;50.946;6.954;2022-11-15T07:26:19;3.83;;;3.53;;
5129;SDS011;2583;50.946;6.954;2022-11-15T07:28:46;5.20;;;4.00;;
5129;SDS011;2583;50.946;6.954;2022-11-15T07:31:13;4.00;;;3.70;;
5129;SDS011;2583;50.946;6.954;2022-11-15T07:33:40;4.70;;;4.17;;
5129;SDS011;2583;50.946;6.954;2022-11-15T07:36:07;3.83;;;3.53;;
5129;SDS011;2583;50.946;6.954;2022-11-15T07:38:34;5.63;;;3.50;;
5129;SDS011;2583;50.946;6.954;2022-11-15T07:41:08;13.00;;;4.87;;
5129;SDS011;2583;50.946;6.954;2022-11-15T07:43:34;4.93;;;2.90;;
5129;SDS011;2583;50.946;6.954;2022-11-15T07:46:05;7.83;;;3.50;;
5129;SDS011;2583;50.946;6.954;2022-11-15T07:48:35;4.97;;;3.70;;
5129;SDS011;2583;50.946;6.954;2022-11-15T07:51:11;9.30;;;3.00;;
5129;SDS011;2583;50.946;6.954;2022-11-15T07:53:42;16.13;;;3.73;;
5129;SDS011;2583;50.946;6.954;2022-11-15T07:56:09;3.70;;;3.40;;
5129;SDS011;2583;50.946;6.954;2022-11-15T07:58:36;4.43;;;2.53;;
5129;SDS011;2583;50.946;6.954;2022-11-15T08:01:04;3.90;;;2.70;;
5129;SDS011;2583;50.946;6.954;2022-11-15T08:03:32;10.13;;;2.47;;
5129;SDS011;2583;50.946;6.954;2022-11-15T08:06:00;6.50;;;3.63;;
5129;SDS011;2583;50.946;6.954;2022-11-15T08:08:27;2.80;;;2.60;;
5129;SDS011;2583;50.946;6.954;2022-11-15T08:10:53;3.63;;;2.33;;
5129;SDS011;2583;50.946;6.954;2022-11-15T08:13:20;2.27;;;2.07;;
5129;SDS011;2583;50.946;6.954;2022-11-15T08:15:47;2.77;;;1.90;;
5129;SDS011;2583;50.946;6.954;2022-11-15T08:18:21;3.13;;;2.40;;
5129;SDS011;2583;50.946;6.954;2022-11-15T08:20:48;3.97;;;3.30;;
5129;SDS011;2583;50.946;6.954;2022-11-15T08:23:15;4.37;;;2.57;;
5129;SDS011;2583;50.946;6.954;2022-11-15T08:25:41;6.03;;;3.10;;
5129;SDS011;2583;50.946;6.954;2022-11-15T08:28:09;3.47;;;3.27;;
5129;SDS011;2583;50.946;6.954;2022-11-15T08:30:37;3.40;;;3.03;;
5129;SDS011;2583;50.946;6.954;2022-11-15T08:33:10;3.40;;;3.10;;
5129;SDS011;2583;50.946;6.954;2022-11-15T08:35:39;7.73;;;2.70;;
5129;SDS011;2583;50.946;6.954;2022-11-15T08:38:07;3.43;;;2.53;;
5129;SDS011;2583;50.946;6.954;2022-11-15T08:40:33;3.93;;;3.33;;
5129;SDS011;2583;50.946;6.954;2022-11-15T08:43:01;2.93;;;2.60;;
5129;SDS011;2583;50.946;6.954;2022-11-15T08:45:29;6.50;;;3.00;;
5129;SDS011;2583;50.946;6.954;2022-11-15T08:47:56;3.93;;;2.40;;
5129;SDS011;2583;50.946;6.954;2022-11-15T08:50:23;2.97;;;2.67;;
5129;SDS011;2583;50.946;6.954;2022-11-15T08:52:50;3.10;;;2.00;;
5129;SDS011;2583;50.946;6.954;2022-11-15T08:55:17;3.03;;;1.93;;
5129;SDS011;2583;50.946;6.954;2022-11-15T08:57:44;2.27;;;2.03;;
5129;SDS011;2583;50.946;6.954;2022-11-15T09:00:12;3.13;;;2.23;;
5129;SDS011;2583;50.946;6.954;2022-11-15T09:02:39;2.03;;;1.83;;
5129;SDS011;2583;50.946;6.954;2022-11-15T09:05:07;2.90;;;2.03;;
5129;SDS011;2583;50.946;6.954;2022-11-15T09:07:37;2.77;;;2.23;;
5129;SDS011;2583;50.946;6.954;2022-11-15T09:10:04;2.10;;;1.63;;
5129;SDS011;2583;50.946;6.954;2022-11-15T09:12:31;10.83;;;2.20;;
5129;SDS011;2583;50.946;6.954;2022-11-15T09:14:58;11.87;;;2.53;;
5129;SDS011;2583;50.946;6.954;2022-11-15T09:17:25;2.77;;;1.93;;
5129;SDS011;2583;50.946;6.954;2022-11-15T09:19:52;2.90;;;2.10;;
5129;SDS011;2583;50.946;6.954;2022-11-15T09:22:19;2.50;;;2.30;;
5129;SDS011;2583;50.946;6.954;2022-11-15T09:24:45;4.50;;;2.20;;
5129;SDS011;2583;50.946;6.954;2022-11-15T09:27:12;6.27;;;2.70;;
5129;SDS011;2583;50.946;6.954;2022-11-15T09:29:56;5.03;;;1.90;;
5129;SDS011;2583;50.946;6.954;2022-11-15T09:32:23;4.33;;;2.40;;
5129;SDS011;2583;50.946;6.954;2022-11-15T09:34:53;8.93;;;3.77;;
5129;SDS011;2583;50.946;6.954;2022-11-15T09:37:20;4.43;;;1.93;;
5129;SDS011;2583;50.946;6.954;2022-11-15T09:39:47;4.27;;;2.13;;
5129;SDS011;2583;50.946;6.954;2022-11-15T09:42:23;3.70;;;1.90;;
5129;SDS011;2583;50.946;6.954;2022-11-15T09:47:33;1.50;;;1.03;;
5129;SDS011;2583;50.946;6.954;2022-11-15T09:50:31;4.57;;;1.40;;
5129;SDS011;2583;50.946;6.954;2022-11-15T09:56:22;6.90;;;0.93;;
5129;SDS011;2583;50.946;6.954;2022-11-15T10:04:44;5.93;;;0.90;;
5129;SDS011;2583;50.946;6.954;2022-11-15T10:13:13;4.20;;;1.20;;
5129;SDS011;2583;50.946;6.954;2022-11-15T10:15:48;4.90;;;2.10;;
5129;SDS011;2583;50.946;6.954;2022-11-15T10:21:03;3.70;;;1.90;;
5129;SDS011;2583;50.946;6.954;2022-11-15T10:23:42;6.30;;;1.50;;
5129;SDS011;2583;50.946;6.954;2022-11-15T10:26:11;2.90;;;0.80;;
5129;SDS011;2583;50.946;6.954;2022-11-15T10:28:41;6.77;;;1.40;;
5129;SDS011;2583;50.946;6.954;2022-11-15T10:31:20;11.83;;;1.20;;
5129;SDS011;2583;50.946;6.954;2022-11-15T10:33:57;5.30;;;0.97;;
5129;SDS011;2583;50.946;6.954;2022-11-15T10:36:38;2.97;;;1.43;;
5129;SDS011;2583;50.946;6.954;2022-11-15T10:39:23;2.70;;;1.20;;
5129;SDS011;2583;50.946;6.954;2022-11-15T10:41:51;2.33;;;0.93;;
5129;SDS011;2583;50.946;6.954;2022-11-15T10:44:25;1.67;;;0.77;;
5129;SDS011;2583;50.946;6.954;2022-11-15T10:49:22;3.10;;;1.23;;
5129;SDS011;2583;50.946;6.954;2022-11-15T10:52:02;2.20;;;0.70;;
5129;SDS011;2583;50.946;6.954;2022-11-15T10:54:41;1.60;;;1.00;;
5129;SDS011;2583;50.946;6.954;2022-11-15T10:57:17;2.10;;;1.00;;
5129;SDS011;2583;50.946;6.954;2022-11-15T10:59:57;2.13;;;0.90;;
5129;SDS011;2583;50.946;6.954;2022-11-15T11:02:58;3.20;;;1.10;;
5129;SDS011;2583;50.946;6.954;2022-11-15T11:10:57;2.97;;;1.30;;
5129;SDS011;2583;50.946;6.954;2022-11-15T11:13:38;2.00;;;0.80;;
5129;SDS011;2583;50.946;6.954;2022-11-15T11:16:20;6.00;;;1.33;;
5129;SDS011;2583;50.946;6.954;2022-11-15T11:30:27;4.03;;;0.80;;
5129;SDS011;2583;50.946;6.954;2022-11-15T11:33:07;4.80;;;2.00;;
5129;SDS011;2583;50.946;6.954;2022-11-15T11:35:50;3.23;;;0.87;;
5129;SDS011;2583;50.946;6.954;2022-11-15T11:43:42;3.03;;;1.00;;
5129;SDS011;2583;50.946;6.954;2022-11-15T11:46:35;3.17;;;0.90;;
5129;SDS011;2583;50.946;6.954;2022-11-15T11:49:12;7.83;;;1.20;;
5129;SDS011;2583;50.946;6.954;2022-11-15T11:54:26;2.57;;;1.13;;
5129;SDS011;2583;50.946;6.954;2022-11-15T11:57:05;2.60;;;1.00;;
5129;SDS011;2583;50.946;6.954;2022-11-15T11:59:42;3.10;;;1.20;;
5129;SDS011;2583;50.946;6.954;2022-11-15T12:02:19;2.47;;;1.13;;
5129;SDS011;2583;50.946;6.954;2022-11-15T12:04:54;2.37;;;0.90;;
5129;SDS011;2583;50.946;6.954;2022-11-15T12:07:30;2.80;;;2.07;;
5129;SDS011;2583;50.946;6.954;2022-11-15T12:12:32;4.50;;;1.07;;
5129;SDS011;2583;50.946;6.954;2022-11-15T12:18:04;2.30;;;0.70;;
5129;SDS011;2583;50.946;6.954;2022-11-15T12:20:35;3.53;;;1.20;;
5129;SDS011;2583;50.946;6.954;2022-11-15T12:23:49;3.03;;;1.37;;
5129;SDS011;2583;50.946;6.954;2022-11-15T12:26:06;3.77;;;1.33;;
5129;SDS011;2583;50.946;6.954;2022-11-15T12:28:40;3.20;;;1.20;;
5129;SDS011;2583;50.946;6.954;2022-11-15T12:34:02;2.13;;;1.70;;
5129;SDS011;2583;50.946;6.954;2022-11-15T12:36:43;5.90;;;0.97;;
5129;SDS011;2583;50.946;6.954;2022-11-15T12:39:21;2.43;;;1.23;;
5129;SDS011;2583;50.946;6.954;2022-11-15T12:42:36;2.00;;;1.00;;
5129;SDS011;2583;50.946;6.954;2022-11-15T12:45:24;3.60;;;1.57;;
5129;SDS011;2583;50.946;6.954;2022-11-15T12:58:49;6.20;;;1.47;;
5129;SDS011;2583;50.946;6.954;2022-11-15T13:04:08;3.27;;;1.13;;
5129;SDS011;2583;50.946;6.954;2022-11-15T13:17:17;6.03;;;2.20;;
5129;SDS011;2583;50.946;6.954;2022-11-15T13:19:49;2.17;;;1.73;;
5129;SDS011;2583;50.946;6.954;2022-11-15T13:22:46;3.93;;;1.33;;
5129;SDS011;2583;50.946;6.954;2022-11-15T13:25:23;2.37;;;1.40;;
5129;SDS011;2583;50.946;6.954;2022-11-15T13:27:52;3.53;;;1.60;;
5129;SDS011;2583;50.946;6.954;2022-11-15T13:30:27;3.37;;;1.53;;
5129;SDS011;2583;50.946;6.954;2022-11-15T13:32:56;3.20;;;1.90;;
5129;SDS011;2583;50.946;6.954;2022-11-15T13:35:27;2.57;;;1.60;;
5129;SDS011;2583;50.946;6.954;2022-11-15T13:38:05;4.80;;;2.13;;
5129;SDS011;2583;50.946;6.954;2022-11-15T13:40:36;7.33;;;2.30;;
5129;SDS011;2583;50.946;6.954;2022-11-15T13:48:56;2.90;;;2.00;;
5129;SDS011;2583;50.946;6.954;2022-11-15T13:51:24;2.90;;;2.30;;
5129;SDS011;2583;50.946;6.954;2022-11-15T13:56:45;4.43;;;3.27;;
5129;SDS011;2583;50.946;6.954;2022-11-15T13:59:22;3.53;;;2.10;;
5129;SDS011;2583;50.946;6.954;2022-11-15T14:01:52;3.83;;;1.90;;
5129;SDS011;2583;50.946;6.954;2022-11-15T14:04:22;3.73;;;2.00;;
5129;SDS011;2583;50.946;6.954;2022-11-15T14:06:52;3.60;;;2.27;;
5129;SDS011;2583;50.946;6.954;2022-11-15T14:09:37;3.90;;;2.10;;
5129;SDS011;2583;50.946;6.954;2022-11-15T14:12:26;2.27;;;1.93;;
5129;SDS011;2583;50.946;6.954;2022-11-15T14:17:59;4.27;;;1.93;;
5129;SDS011;2583;50.946;6.954;2022-11-15T14:20:31;2.10;;;1.90;;
5129;SDS011;2583;50.946;6.954;2022-11-15T14:23:01;3.30;;;2.07;;
5129;SDS011;2583;50.946;6.954;2022-11-15T14:25:54;3.43;;;1.50;;
5129;SDS011;2583;50.946;6.954;2022-11-15T14:30:53;12.70;;;4.53;;
5129;SDS011;2583;50.946;6.954;2022-11-15T14:35:50;3.03;;;1.80;;
5129;SDS011;2583;50.946;6.954;2022-11-15T14:38:18;6.80;;;2.33;;
5129;SDS011;2583;50.946;6.954;2022-11-15T14:40:45;2.27;;;1.60;;
5129;SDS011;2583;50.946;6.954;2022-11-15T14:43:12;4.50;;;1.73;;
5129;SDS011;2583;50.946;6.954;2022-11-15T14:45:39;4.60;;;2.47;;
5129;SDS011;2583;50.946;6.954;2022-11-15T14:48:07;3.23;;;1.87;;
5129;SDS011;2583;50.946;6.954;2022-11-15T14:50:34;5.40;;;2.17;;
5129;SDS011;2583;50.946;6.954;2022-11-15T14:53:01;2.17;;;1.73;;
5129;SDS011;2583;50.946;6.954;2022-11-15T14:55:30;5.03;;;1.70;;
5129;SDS011;2583;50.946;6.954;2022-11-15T14:58:00;3.47;;;1.30;;
5129;SDS011;2583;50.946;6.954;2022-11-15T15:00:30;2.37;;;1.40;;
5129;SDS011;2583;50.946;6.954;2022-11-15T15:03:00;2.07;;;1.77;;
5129;SDS011;2583;50.946;6.954;2022-11-15T15:05:33;2.97;;;1.60;;
5129;SDS011;2583;50.946;6.954;2022-11-15T15:08:02;4.33;;;1.77;;
5129;SDS011;2583;50.946;6.954;2022-11-15T15:10:34;2.43;;;1.90;;
5129;SDS011;2583;50.946;6.954;2022-11-15T15:13:25;2.30;;;1.60;;
5129;SDS011;2583;50.946;6.954;2022-11-15T15:15:54;3.47;;;1.63;;
5129;SDS011;2583;50.946;6.954;2022-11-15T15:18:21;5.40;;;1.87;;
5129;SDS011;2583;50.946;6.954;2022-11-15T15:20:55;4.50;;;1.77;;
5129;SDS011;2583;50.946;6.954;2022-11-15T15:23:25;1.93;;;1.40;;
5129;SDS011;2583;50.946;6.954;2022-11-15T15:25:55;2.33;;;1.30;;
5129;SDS011;2583;50.946;6.954;2022-11-15T15:28:22;3.43;;;1.77;;
5129;SDS011;2583;50.946;6.954;2022-11-15T15:30:51;2.13;;;1.67;;
5129;SDS011;2583;50.946;6.954;2022-11-15T15:33:18;3.87;;;1.97;;
5129;SDS011;2583;50.946;6.954;2022-11-15T15:35:45;2.00;;;1.77;;
5129;SDS011;2583;50.946;6.954;2022-11-15T15:38:12;2.47;;;2.00;;
5129;SDS011;2583;50.946;6.954;2022-11-15T15:40:41;3.93;;;2.43;;
5129;SDS011;2583;50.946;6.954;2022-11-15T15:43:08;2.80;;;1.63;;
5129;SDS011;2583;50.946;6.954;2022-11-15T15:45:38;1.63;;;1.53;;
5129;SDS011;2583;50.946;6.954;2022-11-15T15:48:16;2.20;;;1.53;;
5129;SDS011;2583;50.946;6.954;2022-11-15T15:50:43;4.13;;;1.40;;
5129;SDS011;2583;50.946;6.954;2022-11-15T15:53:11;2.90;;;1.67;;
5129;SDS011;2583;50.946;6.954;2022-11-15T15:55:38;2.50;;;1.50;;
5129;SDS011;2583;50.946;6.954;2022-11-15T15:58:05;2.30;;;1.67;;
5129;SDS011;2583;50.946;6.954;2022-11-15T16:00:34;2.30;;;1.50;;
5129;SDS011;2583;50.946;6.954;2022-11-15T16:03:02;2.90;;;1.70;;
5129;SDS011;2583;50.946;6.954;2022-11-15T16:05:29;1.70;;;1.20;;
5129;SDS011;2583;50.946;6.954;2022-11-15T16:07:55;1.93;;;1.60;;
5129;SDS011;2583;50.946;6.954;2022-11-15T16:10:23;2.60;;;1.70;;
5129;SDS011;2583;50.946;6.954;2022-11-15T16:12:55;3.00;;;1.33;;
5129;SDS011;2583;50.946;6.954;2022-11-15T16:15:24;3.00;;;1.67;;
5129;SDS011;2583;50.946;6.954;2022-11-15T16:17:53;8.80;;;1.53;;
5129;SDS011;2583;50.946;6.954;2022-11-15T16:23:02;2.87;;;1.53;;
5129;SDS011;2583;50.946;6.954;2022-11-15T16:25:41;3.03;;;1.50;;
5129;SDS011;2583;50.946;6.954;2022-11-15T16:28:16;3.73;;;1.70;;
5129;SDS011;2583;50.946;6.954;2022-11-15T16:30:43;4.37;;;2.00;;
5129;SDS011;2583;50.946;6.954;2022-11-15T16:33:10;2.67;;;1.83;;
5129;SDS011;2583;50.946;6.954;2022-11-15T16:35:37;2.50;;;2.00;;
5129;SDS011;2583;50.946;6.954;2022-11-15T16:38:04;1.43;;;1.33;;
5129;SDS011;2583;50.946;6.954;2022-11-15T16:40:32;2.70;;;1.57;;
5129;SDS011;2583;50.946;6.954;2022-11-15T16:43:01;2.03;;;1.60;;
5129;SDS011;2583;50.946;6.954;2022-11-15T16:45:29;2.00;;;1.60;;
5129;SDS011;2583;50.946;6.954;2022-11-15T16:47:57;4.87;;;2.33;;
5129;SDS011;2583;50.946;6.954;2022-11-15T16:50:25;2.70;;;1.70;;
5129;SDS011;2583;50.946;6.954;2022-11-15T16:52:57;2.77;;;1.50;;
5129;SDS011;2583;50.946;6.954;2022-11-15T16:55:25;2.50;;;1.63;;
5129;SDS011;2583;50.946;6.954;2022-11-15T16:57:54;1.93;;;1.40;;
5129;SDS011;2583;50.946;6.954;2022-11-15T17:00:23;1.40;;;1.20;;
5129;SDS011;2583;50.946;6.954;2022-11-15T17:02:51;2.50;;;1.80;;
5129;SDS011;2583;50.946;6.954;2022-11-15T17:05:20;1.50;;;1.40;;
5129;SDS011;2583;50.946;6.954;2022-11-15T17:07:49;2.57;;;1.87;;
5129;SDS011;2583;50.946;6.954;2022-11-15T17:10:20;2.50;;;1.97;;
5129;SDS011;2583;50.946;6.954;2022-11-15T17:12:49;2.83;;;2.37;;
5129;SDS011;2583;50.946;6.954;2022-11-15T17:15:17;2.90;;;1.87;;
5129;SDS011;2583;50.946;6.954;2022-11-15T17:17:49;3.40;;;1.60;;
5129;SDS011;2583;50.946;6.954;2022-11-15T17:20:21;3.30;;;1.90;;
5129;SDS011;2583;50.946;6.954;2022-11-15T17:22:49;2.70;;;1.90;;
5129;SDS011;2583;50.946;6.954;2022-11-15T17:25:17;1.80;;;1.60;;
5129;SDS011;2583;50.946;6.954;2022-11-15T17:27:45;4.90;;;2.20;;
5129;SDS011;2583;50.946;6.954;2022-11-15T17:30:13;1.60;;;1.50;;
5129;SDS011;2583;50.946;6.954;2022-11-15T17:32:41;2.20;;;2.00;;
5129;SDS011;2583;50.946;6.954;2022-11-15T17:35:10;3.50;;;2.13;;
5129;SDS011;2583;50.946;6.954;2022-11-15T17:37:41;2.17;;;1.60;;
5129;SDS011;2583;50.946;6.954;2022-11-15T17:40:08;3.93;;;2.67;;
5129;SDS011;2583;50.946;6.954;2022-11-15T17:42:36;2.40;;;2.20;;
5129;SDS011;2583;50.946;6.954;2022-11-15T17:45:05;2.60;;;2.40;;
5129;SDS011;2583;50.946;6.954;2022-11-15T17:47:35;3.20;;;1.90;;
5129;SDS011;2583;50.946;6.954;2022-11-15T17:50:02;2.33;;;1.90;;
5129;SDS011;2583;50.946;6.954;2022-11-15T17:52:29;4.50;;;2.93;;
5129;SDS011;2583;50.946;6.954;2022-11-15T17:54:56;2.77;;;2.50;;
5129;SDS011;2583;50.946;6.954;2022-11-15T17:57:23;2.13;;;1.93;;